createdAt,value
2019-05-29T00:00:41.056Z,9.00
2019-05-29T00:03:10.482Z,9.13
2019-05-29T00:05:39.110Z,9.70
2019-05-29T00:08:08.251Z,9.77
2019-05-29T00:10:36.958Z,10.03
2019-05-29T00:13:06.204Z,9.37
2019-05-29T00:15:35.128Z,9.30
2019-05-29T00:18:03.603Z,9.60
2019-05-29T00:20:32.036Z,10.03
2019-05-29T00:23:00.613Z,9.97
2019-05-29T00:25:29.062Z,10.20
2019-05-29T00:27:57.515Z,9.50
2019-05-29T00:30:26.031Z,9.93
2019-05-29T00:32:54.600Z,9.33
2019-05-29T00:35:23.076Z,10.07
2019-05-29T00:37:51.539Z,9.60
2019-05-29T00:40:20.099Z,9.87
2019-05-29T00:42:48.556Z,9.80
2019-05-29T00:45:17.939Z,9.80
2019-05-29T00:47:46.437Z,10.03
2019-05-29T00:50:16.156Z,9.37
2019-05-29T00:52:44.745Z,9.57
2019-05-29T00:55:14.592Z,10.10
2019-05-29T00:57:43.391Z,9.87
2019-05-29T01:00:13.192Z,9.83
2019-05-29T01:02:41.786Z,9.50
2019-05-29T01:05:11.885Z,9.90
2019-05-29T01:07:40.578Z,9.83
2019-05-29T01:10:10.582Z,10.40
2019-05-29T01:12:39.135Z,9.83
2019-05-29T01:15:07.931Z,10.37
2019-05-29T01:17:36.379Z,10.27
2019-05-29T01:20:08.794Z,10.07
2019-05-29T01:22:37.245Z,10.23
2019-05-29T01:25:06.431Z,9.80
2019-05-29T01:27:34.878Z,10.60
2019-05-29T01:30:04.466Z,10.30
2019-05-29T01:32:32.909Z,10.47
2019-05-29T01:35:01.368Z,10.90
2019-05-29T01:37:29.819Z,10.83
2019-05-29T01:39:58.355Z,11.33
2019-05-29T01:42:27.755Z,12.40
2019-05-29T01:45:07.235Z,10.40
2019-05-29T01:47:27.931Z,10.83
2019-05-29T01:49:56.744Z,12.53
2019-05-29T01:52:25.187Z,13.17
2019-05-29T01:54:53.646Z,12.40
2019-05-29T01:57:22.097Z,13.53
2019-05-29T01:59:50.557Z,12.80
2019-05-29T02:02:19.858Z,13.10
2019-05-29T02:04:48.428Z,12.03
2019-05-29T02:07:17.939Z,11.20
2019-05-29T02:09:46.654Z,12.03
2019-05-29T02:12:16.202Z,13.43
2019-05-29T02:14:44.926Z,11.87
2019-05-29T02:17:13.431Z,12.73
2019-05-29T02:19:41.909Z,11.83
2019-05-29T02:22:10.353Z,10.90
2019-05-29T02:24:39.051Z,11.47
2019-05-29T02:27:07.515Z,12.30
2019-05-29T02:29:35.951Z,12.17
2019-05-29T02:32:04.616Z,11.13
2019-05-29T02:34:33.064Z,12.00
2019-05-29T02:37:01.588Z,12.10
2019-05-29T02:39:30.104Z,11.80
2019-05-29T02:41:58.724Z,13.43
2019-05-29T02:44:27.689Z,12.70
2019-05-29T02:46:56.741Z,13.10
2019-05-29T02:49:25.819Z,12.93
2019-05-29T02:51:54.541Z,12.27
2019-05-29T02:54:24.713Z,12.97
2019-05-29T02:56:53.241Z,14.30
2019-05-29T02:59:23.272Z,12.57
2019-05-29T03:01:52.136Z,13.47
2019-05-29T03:04:21.676Z,13.87
2019-05-29T03:06:50.392Z,13.27
2019-05-29T03:09:18.975Z,14.27
2019-05-29T03:11:47.603Z,12.30
2019-05-29T03:14:16.043Z,12.90
2019-05-29T03:16:44.514Z,12.97
2019-05-29T03:19:13.035Z,14.00
2019-05-29T03:21:41.833Z,13.43
2019-05-29T03:24:10.351Z,13.37
2019-05-29T03:26:38.812Z,13.17
2019-05-29T03:29:07.245Z,13.57
2019-05-29T03:31:43.527Z,13.60
2019-05-29T03:34:05.878Z,13.30
2019-05-29T03:36:42.486Z,11.60
2019-05-29T03:39:06.579Z,12.70
2019-05-29T03:41:35.061Z,14.13
2019-05-29T03:44:03.634Z,13.47
2019-05-29T03:46:41.108Z,13.87
2019-05-29T03:49:02.335Z,13.03
2019-05-29T03:51:32.477Z,13.93
2019-05-29T03:54:01.200Z,12.87
2019-05-29T03:56:30.637Z,13.30
2019-05-29T03:58:59.387Z,12.93
2019-05-29T04:01:29.104Z,12.43
2019-05-29T04:03:58.248Z,12.97
2019-05-29T04:06:27.024Z,13.20
2019-05-29T04:08:55.625Z,11.57
2019-05-29T04:11:24.123Z,11.90
2019-05-29T04:13:52.601Z,12.87
2019-05-29T04:16:23.638Z,12.47
2019-05-29T04:18:53.330Z,12.10
2019-05-29T04:21:24.979Z,12.60
2019-05-29T04:23:55.944Z,12.60
2019-05-29T04:26:25.724Z,11.83
2019-05-29T04:28:54.419Z,12.83
2019-05-29T04:31:23.003Z,12.20
2019-05-29T04:33:51.514Z,11.10
2019-05-29T04:36:20.025Z,11.47
2019-05-29T04:38:48.560Z,11.10
2019-05-29T04:41:17.091Z,11.87
2019-05-29T04:43:48.888Z,11.33
2019-05-29T04:46:17.902Z,10.80
2019-05-29T04:48:46.426Z,10.90
2019-05-29T04:51:14.950Z,11.60
2019-05-29T04:53:43.413Z,12.67
2019-05-29T04:56:12.064Z,10.83
2019-05-29T04:58:40.587Z,10.87
2019-05-29T05:01:09.076Z,11.37
2019-05-29T05:03:37.576Z,11.17
2019-05-29T05:06:06.018Z,11.57
2019-05-29T05:08:35.414Z,10.20
2019-05-29T05:11:03.883Z,9.70
2019-05-29T05:13:33.440Z,9.57
2019-05-29T05:16:03.031Z,10.00
2019-05-29T05:18:31.784Z,10.67
2019-05-29T05:21:00.301Z,10.17
2019-05-29T05:23:30.069Z,8.60
2019-05-29T05:25:58.632Z,11.30
2019-05-29T05:28:27.086Z,10.53
2019-05-29T05:30:55.527Z,11.33
2019-05-29T05:33:23.959Z,10.67
2019-05-29T05:35:52.436Z,10.60
2019-05-29T05:38:20.935Z,10.63
2019-05-29T05:40:49.391Z,9.80
2019-05-29T05:43:24.024Z,9.20
2019-05-29T05:45:48.019Z,11.17
2019-05-29T05:48:16.501Z,11.70
2019-05-29T05:50:44.999Z,11.17
2019-05-29T05:53:13.499Z,10.43
2019-05-29T05:55:41.968Z,11.13
2019-05-29T05:58:10.397Z,10.90
2019-05-29T06:00:39.873Z,9.87
2019-05-29T06:03:08.456Z,11.67
2019-05-29T06:05:38.103Z,10.40
2019-05-29T06:08:06.856Z,10.13
2019-05-29T06:10:36.135Z,11.30
2019-05-29T06:13:04.878Z,13.23
2019-05-29T06:15:34.317Z,15.90
2019-05-29T06:18:19.831Z,10.47
2019-05-29T06:20:33.012Z,10.47
2019-05-29T06:23:01.448Z,9.47
2019-05-29T06:25:29.939Z,9.97
2019-05-29T06:27:58.378Z,9.07
2019-05-29T06:30:27.059Z,9.07
2019-05-29T06:32:55.502Z,10.80
2019-05-29T06:35:24.395Z,11.33
2019-05-29T06:37:52.836Z,10.60
2019-05-29T06:40:40.218Z,10.03
2019-05-29T06:43:14.467Z,12.30
2019-05-29T06:45:44.038Z,24.10
2019-05-29T06:48:15.820Z,18.63
2019-05-29T06:50:44.297Z,13.50
2019-05-29T06:53:12.727Z,14.60
2019-05-29T06:55:42.159Z,10.20
2019-05-29T06:58:10.712Z,14.33
2019-05-29T07:00:39.868Z,13.43
2019-05-29T07:03:09.519Z,11.27
2019-05-29T07:05:37.970Z,10.60
2019-05-29T07:08:18.019Z,11.33
2019-05-29T07:10:38.123Z,12.07
2019-05-29T07:13:07.195Z,10.13
2019-05-29T07:15:36.498Z,11.00
2019-05-29T07:18:05.222Z,10.50
2019-05-29T07:20:33.676Z,9.80
2019-05-29T07:23:02.139Z,10.80
2019-05-29T07:25:30.601Z,9.07
2019-05-29T07:27:59.035Z,9.37
2019-05-29T07:30:29.119Z,10.43
2019-05-29T07:32:59.115Z,10.27
2019-05-29T07:35:27.851Z,10.50
2019-05-29T07:37:56.403Z,9.83
2019-05-29T07:40:24.927Z,9.30
2019-05-29T07:42:56.816Z,10.40
2019-05-29T07:45:23.634Z,10.03
2019-05-29T07:47:52.164Z,10.83
2019-05-29T07:50:20.714Z,10.00
2019-05-29T07:52:49.377Z,10.67
2019-05-29T07:55:18.115Z,10.20
2019-05-29T07:57:47.017Z,10.07
2019-05-29T08:00:16.134Z,10.07
2019-05-29T08:02:45.406Z,9.30
2019-05-29T08:05:14.577Z,11.60
2019-05-29T08:07:43.382Z,11.50
2019-05-29T08:10:12.896Z,10.50
2019-05-29T08:12:46.390Z,9.33
2019-05-29T08:15:11.847Z,9.87
2019-05-29T08:17:40.326Z,10.80
2019-05-29T08:20:09.620Z,9.80
2019-05-29T08:22:38.392Z,10.10
2019-05-29T08:25:07.068Z,10.33
2019-05-29T08:27:35.682Z,10.00
2019-05-29T08:30:07.187Z,9.33
2019-05-29T08:32:35.696Z,9.27
2019-05-29T08:35:06.827Z,9.57
2019-05-29T08:37:35.283Z,9.80
2019-05-29T08:40:05.550Z,10.27
2019-05-29T08:42:34.013Z,9.63
2019-05-29T08:45:02.447Z,8.30
2019-05-29T08:47:30.894Z,9.90
2019-05-29T08:50:16.803Z,10.03
2019-05-29T08:52:29.523Z,8.63
2019-05-29T08:54:58.057Z,9.10
2019-05-29T08:57:26.503Z,8.30
2019-05-29T08:59:54.956Z,9.33
2019-05-29T09:02:23.419Z,9.20
2019-05-29T09:04:53.089Z,8.90
2019-05-29T09:07:22.041Z,9.60
2019-05-29T09:09:51.277Z,9.13
2019-05-29T09:12:20.061Z,9.10
2019-05-29T09:14:50.539Z,9.83
2019-05-29T09:17:18.763Z,10.13
2019-05-29T09:19:47.283Z,9.13
2019-05-29T09:22:16.541Z,9.93
2019-05-29T09:24:45.059Z,9.10
2019-05-29T09:27:14.469Z,8.53
2019-05-29T09:29:43.799Z,9.03
2019-05-29T09:32:13.468Z,9.07
2019-05-29T09:34:42.769Z,8.40
2019-05-29T09:37:11.298Z,9.53
2019-05-29T09:39:39.868Z,10.50
2019-05-29T09:42:08.679Z,10.63
2019-05-29T09:44:39.428Z,9.30
2019-05-29T09:47:07.641Z,9.10
2019-05-29T09:49:36.363Z,8.47
2019-05-29T09:52:05.167Z,10.20
2019-05-29T09:54:33.785Z,9.37
2019-05-29T09:57:02.853Z,10.30
2019-05-29T09:59:31.435Z,9.20
2019-05-29T10:02:04.954Z,8.77
2019-05-29T10:04:30.045Z,10.53
2019-05-29T10:06:59.566Z,10.13
2019-05-29T10:09:28.413Z,9.17
2019-05-29T10:12:00.984Z,9.67
2019-05-29T10:14:27.075Z,10.17
2019-05-29T10:16:58.262Z,8.43
2019-05-29T10:19:25.694Z,9.83
2019-05-29T10:21:54.835Z,9.90
2019-05-29T10:24:24.367Z,9.37
2019-05-29T10:26:52.808Z,8.10
2019-05-29T10:29:21.262Z,8.47
2019-05-29T10:31:51.129Z,9.37
2019-05-29T10:34:19.887Z,9.90
2019-05-29T10:36:51.898Z,9.77
2019-05-29T10:39:18.524Z,8.57
2019-05-29T10:41:47.033Z,9.90
2019-05-29T10:44:15.505Z,9.93
2019-05-29T10:46:47.354Z,10.80
2019-05-29T10:49:14.177Z,10.17
2019-05-29T10:51:57.977Z,9.93
2019-05-29T10:54:12.847Z,10.53
2019-05-29T10:56:41.356Z,10.50
2019-05-29T10:59:09.825Z,9.77
2019-05-29T11:01:38.263Z,10.27
2019-05-29T11:04:07.020Z,9.03
2019-05-29T11:06:39.371Z,9.77
2019-05-29T11:09:07.392Z,9.87
2019-05-29T11:11:35.896Z,9.67
2019-05-29T11:14:04.488Z,10.17
2019-05-29T11:16:32.930Z,9.60
2019-05-29T11:19:01.410Z,10.83
2019-05-29T11:21:29.867Z,9.67
2019-05-29T11:23:58.648Z,10.50
2019-05-29T11:26:27.466Z,9.37
2019-05-29T11:28:56.632Z,9.43
2019-05-29T11:31:25.220Z,9.67
2019-05-29T11:33:54.893Z,8.63
2019-05-29T11:36:23.586Z,8.90
2019-05-29T11:38:54.289Z,8.23
2019-05-29T11:41:26.367Z,9.50
2019-05-29T11:43:54.615Z,9.77
2019-05-29T11:46:23.294Z,8.67
2019-05-29T11:48:53.019Z,9.73
2019-05-29T11:51:21.751Z,11.23
2019-05-29T11:53:51.350Z,9.67
2019-05-29T11:56:20.083Z,8.77
2019-05-29T11:58:48.525Z,9.67
2019-05-29T12:01:17.053Z,11.10
2019-05-29T12:04:07.779Z,11.27
2019-05-29T12:06:15.724Z,10.27
2019-05-29T12:08:44.188Z,9.17
2019-05-29T12:11:12.650Z,9.40
2019-05-29T12:13:41.079Z,10.20
2019-05-29T12:16:09.612Z,9.17
2019-05-29T12:18:38.044Z,10.33
2019-05-29T12:21:06.502Z,10.00
2019-05-29T12:23:34.939Z,10.47
2019-05-29T12:26:20.959Z,10.20
2019-05-29T12:28:33.596Z,10.33
2019-05-29T12:31:03.449Z,9.10
2019-05-29T12:33:32.068Z,10.00
2019-05-29T12:36:01.277Z,9.77
2019-05-29T12:38:29.821Z,8.93
2019-05-29T12:40:59.681Z,8.80
2019-05-29T12:43:28.411Z,11.00
2019-05-29T12:45:57.755Z,8.90
2019-05-29T12:48:26.349Z,8.30
2019-05-29T12:50:56.099Z,9.17
2019-05-29T12:53:30.068Z,9.87
2019-05-29T12:55:56.129Z,9.17
2019-05-29T12:58:24.753Z,9.50
2019-05-29T13:00:54.475Z,8.93
2019-05-29T13:03:23.132Z,9.70
2019-05-29T13:05:51.836Z,10.10
2019-05-29T13:08:20.291Z,9.43
2019-05-29T13:10:48.809Z,9.30
2019-05-29T13:13:17.265Z,7.33
2019-05-29T13:15:45.709Z,7.87
2019-05-29T13:18:14.311Z,9.67
2019-05-29T13:20:42.803Z,9.07
2019-05-29T13:23:11.268Z,9.37
2019-05-29T13:25:39.775Z,8.80
2019-05-29T13:28:08.227Z,8.20
2019-05-29T13:30:38.252Z,8.60
2019-05-29T13:33:08.903Z,7.80
2019-05-29T13:35:37.091Z,8.33
2019-05-29T13:38:05.542Z,8.40
2019-05-29T13:40:33.975Z,8.40
2019-05-29T13:43:11.446Z,7.30
2019-05-29T13:45:32.675Z,7.30
2019-05-29T13:48:01.406Z,7.73
2019-05-29T13:50:30.127Z,8.43
2019-05-29T13:52:59.350Z,7.57
2019-05-29T13:55:28.026Z,7.70
2019-05-29T13:57:57.612Z,7.53
2019-05-29T14:00:33.275Z,9.20
2019-05-29T14:02:58.236Z,8.40
2019-05-29T14:05:26.879Z,8.67
2019-05-29T14:07:55.333Z,8.23
2019-05-29T14:10:23.757Z,7.43
2019-05-29T14:12:52.223Z,8.50
2019-05-29T14:15:20.813Z,8.57
2019-05-29T14:17:49.272Z,6.87
2019-05-29T14:20:18.747Z,9.27
2019-05-29T14:22:48.732Z,8.17
2019-05-29T14:25:17.291Z,8.47
2019-05-29T14:27:45.751Z,9.13
2019-05-29T14:30:14.792Z,9.10
2019-05-29T14:32:43.254Z,8.93
2019-05-29T14:35:13.405Z,9.50
2019-05-29T14:37:42.364Z,8.03
2019-05-29T14:40:12.079Z,8.80
2019-05-29T14:42:41.566Z,8.97
2019-05-29T14:45:10.780Z,8.97
2019-05-29T14:47:40.951Z,9.30
2019-05-29T14:50:11.135Z,9.00
2019-05-29T14:52:39.892Z,10.17
2019-05-29T14:55:11.399Z,9.60
2019-05-29T14:57:39.036Z,9.37
2019-05-29T15:00:22.144Z,9.23
2019-05-29T15:02:40.449Z,8.00
2019-05-29T15:05:09.763Z,9.13
2019-05-29T15:07:38.563Z,8.93
2019-05-29T15:10:19.746Z,8.80
2019-05-29T15:12:38.740Z,8.67
2019-05-29T15:15:08.858Z,8.70
2019-05-29T15:17:37.783Z,9.03
2019-05-29T15:20:10.445Z,9.07
2019-05-29T15:22:40.080Z,8.70
2019-05-29T15:25:18.442Z,8.53
2019-05-29T15:27:39.450Z,8.60
2019-05-29T15:30:11.299Z,9.03
2019-05-29T15:32:40.206Z,9.27
2019-05-29T15:35:13.737Z,8.80
2019-05-29T15:37:39.657Z,7.30
2019-05-29T15:40:09.018Z,8.80
2019-05-29T15:42:37.522Z,9.73
2019-05-29T15:45:08.083Z,9.23
2019-05-29T15:47:36.799Z,8.07
2019-05-29T15:50:11.804Z,9.13
2019-05-29T15:52:41.556Z,9.37
2019-05-29T15:55:27.293Z,8.83
2019-05-29T15:57:40.922Z,8.87
2019-05-29T16:00:11.559Z,8.37
2019-05-29T16:02:40.158Z,8.90
2019-05-29T16:05:11.104Z,9.67
2019-05-29T16:07:39.822Z,8.70
2019-05-29T16:10:13.111Z,9.00
2019-05-29T16:12:40.215Z,7.67
2019-05-29T16:15:11.022Z,7.73
2019-05-29T16:17:39.887Z,8.37
2019-05-29T16:20:12.353Z,9.30
2019-05-29T16:22:40.946Z,7.67
2019-05-29T16:25:10.803Z,7.53
2019-05-29T16:27:39.465Z,8.30
2019-05-29T16:30:08.901Z,8.83
2019-05-29T16:32:37.364Z,8.13
2019-05-29T16:35:07.559Z,8.30
2019-05-29T16:37:35.995Z,8.73
2019-05-29T16:40:14.181Z,8.23
2019-05-29T16:42:42.839Z,7.37
2019-05-29T16:45:12.360Z,7.43
2019-05-29T16:47:40.919Z,9.30
2019-05-29T16:50:09.807Z,7.80
2019-05-29T16:52:38.407Z,8.10
2019-05-29T16:55:07.591Z,8.93
2019-05-29T16:57:36.097Z,8.80
2019-05-29T17:00:10.635Z,9.57
2019-05-29T17:02:39.486Z,10.50
2019-05-29T17:05:08.960Z,10.63
2019-05-29T17:07:39.000Z,9.80
2019-05-29T17:10:09.885Z,8.80
2019-05-29T17:12:38.399Z,8.67
2019-05-29T17:15:11.601Z,9.60
2019-05-29T17:17:40.066Z,9.43
2019-05-29T17:20:10.863Z,9.37
2019-05-29T17:22:39.359Z,8.37
2019-05-29T17:25:08.246Z,9.60
2019-05-29T17:27:36.713Z,10.80
2019-05-29T17:30:09.227Z,9.20
2019-05-29T17:32:37.760Z,9.60
2019-05-29T17:35:07.999Z,9.07
2019-05-29T17:37:36.984Z,9.70
2019-05-29T17:40:07.779Z,9.47
2019-05-29T17:42:36.323Z,9.37
2019-05-29T17:45:09.659Z,7.50
2019-05-29T17:47:39.153Z,10.47
2019-05-29T17:50:07.896Z,9.60
2019-05-29T17:52:36.432Z,9.53
2019-05-29T17:55:06.907Z,8.43
2019-05-29T17:57:35.490Z,8.57
2019-05-29T18:00:06.748Z,10.27
2019-05-29T18:02:50.808Z,9.30
2019-05-29T18:05:06.532Z,9.70
2019-05-29T18:07:34.983Z,9.27
2019-05-29T18:10:04.889Z,9.60
2019-05-29T18:12:33.364Z,8.13
2019-05-29T18:15:08.539Z,9.07
2019-05-29T18:17:37.445Z,9.00
2019-05-29T18:20:14.482Z,8.37
2019-05-29T18:22:41.397Z,9.07
2019-05-29T18:25:10.220Z,9.07
2019-05-29T18:27:38.687Z,9.13
2019-05-29T18:30:08.233Z,9.70
2019-05-29T18:32:37.420Z,9.40
2019-05-29T18:35:10.107Z,8.63
2019-05-29T18:37:38.559Z,8.40
2019-05-29T18:40:12.451Z,9.53
2019-05-29T18:42:39.430Z,9.57
2019-05-29T18:45:20.252Z,8.90
2019-05-29T18:47:39.086Z,9.67
2019-05-29T18:50:08.555Z,9.33
2019-05-29T18:52:37.075Z,9.03
2019-05-29T18:55:07.253Z,7.87
2019-05-29T18:57:35.707Z,9.33
2019-05-29T19:00:09.851Z,8.80
2019-05-29T19:02:38.304Z,8.27
2019-05-29T19:05:07.188Z,9.00
2019-05-29T19:07:35.734Z,10.47
2019-05-29T19:10:07.040Z,11.33
2019-05-29T19:12:36.142Z,10.20
2019-05-29T19:15:06.677Z,10.77
2019-05-29T19:17:35.212Z,10.33
2019-05-29T19:20:04.423Z,9.87
2019-05-29T19:22:33.146Z,9.73
2019-05-29T19:25:01.856Z,9.77
2019-05-29T19:27:39.185Z,9.17
2019-05-29T19:30:00.523Z,8.90
2019-05-29T19:32:29.353Z,7.83
2019-05-29T19:34:57.902Z,8.00
2019-05-29T19:37:27.945Z,8.40
2019-05-29T19:39:56.507Z,9.17
2019-05-29T19:42:26.091Z,9.23
2019-05-29T19:44:54.743Z,8.70
2019-05-29T19:47:24.512Z,9.10
2019-05-29T19:49:53.405Z,8.63
2019-05-29T19:52:22.407Z,8.77
2019-05-29T19:54:51.307Z,9.23
2019-05-29T19:57:19.743Z,9.10
2019-05-29T19:59:48.215Z,9.77
2019-05-29T20:02:17.393Z,9.90
2019-05-29T20:04:45.959Z,9.63
2019-05-29T20:07:14.683Z,7.93
2019-05-29T20:09:43.130Z,9.13
2019-05-29T20:12:11.564Z,8.50
2019-05-29T20:14:40.039Z,9.90
2019-05-29T20:17:08.553Z,9.77
2019-05-29T20:19:39.638Z,9.17
2019-05-29T20:22:07.177Z,8.50
2019-05-29T20:24:36.890Z,7.97
2019-05-29T20:27:05.551Z,7.40
2019-05-29T20:29:53.341Z,8.13
2019-05-29T20:32:21.785Z,9.07
2019-05-29T20:34:50.238Z,8.43
2019-05-29T20:37:18.665Z,8.43
2019-05-29T20:39:47.120Z,9.20
2019-05-29T20:42:15.899Z,8.93
2019-05-29T20:44:44.491Z,8.60
2019-05-29T20:47:13.004Z,8.50
2019-05-29T20:49:42.263Z,9.10
2019-05-29T20:52:10.928Z,9.03
2019-05-29T20:54:39.724Z,7.90
2019-05-29T20:57:11.306Z,8.20
2019-05-29T20:59:42.014Z,8.20
2019-05-29T21:02:10.927Z,8.10
2019-05-29T21:04:40.580Z,7.60
2019-05-29T21:07:09.281Z,8.77
2019-05-29T21:09:38.946Z,9.57
2019-05-29T21:12:07.723Z,9.50
2019-05-29T21:14:37.487Z,9.17
2019-05-29T21:17:06.131Z,9.60
2019-05-29T21:19:34.595Z,9.10
2019-05-29T21:22:03.027Z,9.83
2019-05-29T21:24:31.487Z,8.43
2019-05-29T21:26:59.998Z,8.60
2019-05-29T21:29:28.473Z,8.93
2019-05-29T21:31:56.983Z,9.47
2019-05-29T21:34:25.462Z,11.87
2019-05-29T21:36:54.035Z,8.30
2019-05-29T21:39:22.495Z,8.13
2019-05-29T21:41:51.083Z,9.47
2019-05-29T21:44:19.515Z,8.97
2019-05-29T21:46:47.967Z,9.97
2019-05-29T21:49:16.398Z,9.43
2019-05-29T21:51:45.758Z,8.60
2019-05-29T21:54:14.375Z,9.33
2019-05-29T21:56:43.747Z,8.20
2019-05-29T21:59:12.252Z,9.13
2019-05-29T22:01:41.965Z,9.20
2019-05-29T22:04:10.630Z,8.60
2019-05-29T22:06:40.458Z,8.03
2019-05-29T22:09:12.155Z,8.83
2019-05-29T22:11:40.806Z,8.13
2019-05-29T22:14:09.380Z,8.77
2019-05-29T22:16:37.907Z,8.73
2019-05-29T22:19:06.694Z,7.80
2019-05-29T22:21:35.254Z,7.97
2019-05-29T22:24:03.763Z,7.83
2019-05-29T22:26:32.283Z,8.70
2019-05-29T22:29:15.669Z,8.13
2019-05-29T22:31:30.931Z,9.20
2019-05-29T22:33:59.561Z,9.17
2019-05-29T22:36:28.118Z,8.03
2019-05-29T22:38:57.489Z,8.00
2019-05-29T22:41:25.964Z,8.43
2019-05-29T22:43:55.395Z,8.97
2019-05-29T22:46:24.021Z,9.03
2019-05-29T22:48:53.586Z,9.40
2019-05-29T22:51:22.203Z,9.07
2019-05-29T22:53:52.459Z,7.17
2019-05-29T22:56:20.819Z,8.80
2019-05-29T22:58:49.260Z,9.67
2019-05-29T23:01:17.715Z,9.83
2019-05-29T23:03:46.163Z,8.77
2019-05-29T23:06:14.618Z,9.00
2019-05-29T23:08:43.055Z,8.73
2019-05-29T23:11:11.582Z,9.00
2019-05-29T23:13:40.002Z,9.40
2019-05-29T23:16:08.461Z,9.20
2019-05-29T23:18:36.897Z,8.70
2019-05-29T23:21:05.393Z,9.30
2019-05-29T23:23:33.887Z,9.17
2019-05-29T23:26:03.011Z,9.17
2019-05-29T23:28:31.779Z,8.87
2019-05-29T23:31:01.015Z,9.37
2019-05-29T23:33:30.282Z,8.57
2019-05-29T23:35:59.074Z,8.93
2019-05-29T23:38:27.702Z,8.70
2019-05-29T23:40:57.428Z,8.37
2019-05-29T23:43:26.148Z,8.33
2019-05-29T23:45:55.337Z,7.90
2019-05-29T23:48:23.912Z,7.80
2019-05-29T23:50:53.344Z,8.50
2019-05-29T23:53:21.892Z,8.17
2019-05-29T23:55:50.343Z,7.87
2019-05-29T23:58:19.046Z,7.90
